Time;durP1;ratioP1;P1;durP2;ratioP2;P2;SDS_P1;SDS_P2;PMS_P1;PMS_P2;Temp;Humidity;BMP_temperature;BMP_pressure;BME280_temperature;BME280_humidity;BME280_pressure;Samples;Min_cycle;Max_cycle;Signal;HPM_P1;HPM_P2
2021/04/13 00:00:24;;;;;;;1.33;0.80;;;22.90;29.00;;;;;;5030304;28;20248;-61
2021/04/13 00:02:50;;;;;;;1.27;1.00;;;22.90;29.00;;;;;;5032274;28;20206;-61
2021/04/13 00:05:16;;;;;;;1.10;0.93;;;22.90;29.10;;;;;;5031745;28;20713;-61
2021/04/13 00:07:42;;;;;;;2.40;1.10;;;22.90;29.00;;;;;;5032738;28;20272;-60
2021/04/13 00:10:08;;;;;;;1.33;1.07;;;22.90;29.10;;;;;;5030714;28;20602;-61
2021/04/13 00:12:34;;;;;;;0.87;0.87;;;22.90;29.10;;;;;;5029155;28;20252;-60
2021/04/13 00:15:00;;;;;;;2.60;1.27;;;22.90;29.20;;;;;;5031708;28;20202;-61
2021/04/13 00:17:25;;;;;;;1.23;0.83;;;22.80;29.00;;;;;;5032336;28;20241;-61
2021/04/13 00:19:52;;;;;;;1.87;0.90;;;22.80;29.10;;;;;;5030204;28;20260;-61
2021/04/13 00:22:18;;;;;;;2.70;0.90;;;22.80;29.10;;;;;;5031197;28;20596;-61
2021/04/13 00:24:44;;;;;;;1.00;0.90;;;22.90;29.20;;;;;;5030872;28;20629;-61
2021/04/13 00:27:10;;;;;;;1.37;0.90;;;22.80;29.60;;;;;;5030548;28;20227;-60
2021/04/13 00:29:36;;;;;;;1.25;0.95;;;22.80;29.10;;;;;;5030863;28;20221;-60
2021/04/13 00:32:02;;;;;;;1.37;1.00;;;22.80;29.10;;;;;;5030903;28;20217;-61
2021/04/13 00:34:30;;;;;;;1.20;1.10;;;22.80;29.10;;;;;;5032090;28;20677;-61
2021/04/13 00:36:56;;;;;;;0.73;0.73;;;22.80;29.20;;;;;;5030686;28;20233;-60
2021/04/13 00:39:22;;;;;;;0.87;0.80;;;22.80;29.20;;;;;;5032089;28;20581;-61
2021/04/13 00:41:48;;;;;;;1.10;1.00;;;22.80;29.10;;;;;;5029887;28;20229;-61
2021/04/13 00:44:14;;;;;;;1.00;0.90;;;22.80;29.10;;;;;;5031089;28;20206;-60
2021/04/13 00:46:40;;;;;;;0.83;0.83;;;22.80;29.00;;;;;;5029934;28;20229;-61
2021/04/13 00:49:05;;;;;;;0.90;0.90;;;22.80;28.90;;;;;;5011810;28;20648;-61
2021/04/13 00:51:31;;;;;;;1.20;0.90;;;22.90;29.00;;;;;;5022666;28;20202;-61
2021/04/13 00:53:57;;;;;;;0.90;0.90;;;22.80;28.90;;;;;;5030897;28;20213;-61
2021/04/13 00:56:23;;;;;;;0.80;0.80;;;22.90;29.00;;;;;;5031260;28;20233;-60
2021/04/13 00:58:49;;;;;;;0.80;0.80;;;22.80;28.90;;;;;;5030759;28;20215;-61
2021/04/13 01:01:15;;;;;;;1.63;0.87;;;22.90;29.00;;;;;;5030717;28;20572;-61
2021/04/13 01:03:41;;;;;;;1.00;1.00;;;22.90;29.00;;;;;;5030198;28;20202;-61
2021/04/13 01:06:07;;;;;;;0.87;0.83;;;22.80;29.00;;;;;;5030531;28;20280;-61
2021/04/13 01:08:33;;;;;;;1.10;1.00;;;22.90;29.10;;;;;;5029732;28;20210;-61
2021/04/13 01:10:59;;;;;;;0.90;0.90;;;22.80;29.00;;;;;;5029512;28;20213;-60
2021/04/13 01:13:25;;;;;;;1.37;0.80;;;22.80;29.00;;;;;;5028539;28;20214;-61
2021/04/13 01:15:51;;;;;;;1.77;1.00;;;22.80;29.00;;;;;;5030380;28;20238;-61
2021/04/13 01:18:17;;;;;;;1.83;1.07;;;22.80;29.10;;;;;;5030341;28;20594;-61
2021/04/13 01:20:43;;;;;;;1.23;0.80;;;22.80;29.00;;;;;;5029727;28;20209;-61
2021/04/13 01:23:12;;;;;;;1.43;0.90;;;22.80;29.10;;;;;;5030367;28;20555;-61
2021/04/13 01:25:38;;;;;;;1.57;0.90;;;22.80;29.10;;;;;;5030413;28;20233;-61
2021/04/13 01:28:04;;;;;;;0.90;0.90;;;22.80;29.10;;;;;;5028701;28;20221;-61
2021/04/13 01:30:30;;;;;;;1.10;1.00;;;22.80;29.10;;;;;;5030358;28;20206;-61
2021/04/13 01:32:56;;;;;;;1.60;0.90;;;22.80;29.20;;;;;;5028835;28;20570;-61
2021/04/13 01:35:22;;;;;;;0.90;0.90;;;22.80;29.20;;;;;;5030929;28;20209;-61
2021/04/13 01:37:53;;;;;;;1.43;0.80;;;22.80;29.10;;;;;;5029870;28;20210;-61
2021/04/13 01:40:23;;;;;;;1.00;0.97;;;22.80;29.20;;;;;;5028792;28;20202;-61
2021/04/13 01:42:49;;;;;;;1.80;0.93;;;22.80;29.20;;;;;;5029697;28;20587;-61
2021/04/13 01:45:15;;;;;;;0.83;0.83;;;22.80;29.20;;;;;;5030197;28;20207;-61
2021/04/13 01:47:41;;;;;;;1.20;1.10;;;22.80;29.20;;;;;;5029477;28;20198;-61
2021/04/13 01:50:07;;;;;;;1.00;0.90;;;22.80;29.20;;;;;;5030597;28;20209;-61
2021/04/13 01:52:33;;;;;;;1.07;0.90;;;22.80;29.20;;;;;;5030126;28;20259;-61
2021/04/13 01:54:59;;;;;;;1.17;0.83;;;22.80;29.20;;;;;;5027555;28;20238;-61
2021/04/13 01:57:25;;;;;;;1.33;0.87;;;22.80;29.20;;;;;;5022536;28;20233;-61
2021/04/13 01:59:51;;;;;;;1.63;1.00;;;22.80;29.20;;;;;;5029867;28;20198;-61
2021/04/13 02:02:17;;;;;;;1.10;1.00;;;22.80;29.10;;;;;;5034655;28;20225;-61
2021/04/13 02:04:43;;;;;;;1.53;0.90;;;22.80;29.10;;;;;;5033725;28;20217;-61
2021/04/13 02:07:17;;;;;;;2.13;1.20;;;22.80;29.10;;;;;;5032693;28;20583;-61
2021/04/13 02:09:46;;;;;;;1.67;1.00;;;22.80;29.10;;;;;;5033751;28;20200;-61
2021/04/13 02:12:12;;;;;;;1.77;1.03;;;22.80;29.10;;;;;;5019514;28;20240;-61
2021/04/13 02:14:38;;;;;;;1.77;0.90;;;22.80;29.00;;;;;;5032550;28;20199;-61
2021/04/13 02:17:04;;;;;;;0.93;0.93;;;22.80;29.10;;;;;;5033235;28;20713;-61
2021/04/13 02:19:30;;;;;;;3.10;0.90;;;22.80;29.00;;;;;;5033837;28;20214;-61
2021/04/13 02:21:56;;;;;;;0.80;0.80;;;22.80;29.00;;;;;;5034339;28;20222;-61
2021/04/13 02:24:22;;;;;;;1.57;0.90;;;22.80;29.00;;;;;;5033085;28;20653;-61
2021/04/13 02:26:48;;;;;;;0.80;0.80;;;22.80;29.00;;;;;;5033226;28;20233;-61
2021/04/13 02:29:14;;;;;;;0.90;0.90;;;22.80;29.00;;;;;;5033244;28;20199;-61
2021/04/13 02:31:48;;;;;;;1.07;0.97;;;22.80;29.10;;;;;;5033435;28;20598;-61
2021/04/13 02:34:14;;;;;;;1.80;1.00;;;22.80;29.10;;;;;;5032929;28;20289;-61
2021/04/13 02:36:40;;;;;;;1.57;0.90;;;22.80;29.20;;;;;;5032821;28;20233;-61
2021/04/13 02:39:06;;;;;;;1.30;0.97;;;22.80;29.20;;;;;;5033490;28;20202;-60
2021/04/13 02:41:32;;;;;;;1.03;0.90;;;22.80;29.20;;;;;;5031840;28;20225;-61
2021/04/13 02:43:59;;;;;;;0.90;0.90;;;22.80;29.30;;;;;;5033017;28;20206;-61
2021/04/13 02:46:25;;;;;;;1.00;0.90;;;22.80;29.30;;;;;;5032094;28;20702;-61
2021/04/13 02:48:51;;;;;;;0.88;0.82;;;22.80;29.30;;;;;;5033642;28;20210;-61
2021/04/13 02:51:17;;;;;;;1.10;1.00;;;22.80;29.30;;;;;;5031312;28;20198;-61
2021/04/13 02:53:43;;;;;;;0.90;0.90;;;22.80;29.30;;;;;;5034342;28;20241;-61
2021/04/13 02:56:09;;;;;;;1.77;0.93;;;22.80;29.40;;;;;;5030930;28;20714;-61
2021/04/13 02:58:35;;;;;;;0.83;0.83;;;22.80;29.50;;;;;;5032934;28;20202;-61
2021/04/13 03:01:01;;;;;;;1.17;1.07;;;22.80;29.50;;;;;;5030662;28;20241;-60
2021/04/13 03:03:27;;;;;;;0.80;0.80;;;22.80;29.60;;;;;;5033071;28;20654;-60
2021/04/13 03:05:53;;;;;;;0.90;0.90;;;22.80;29.50;;;;;;5032318;28;20222;-60
2021/04/13 03:08:19;;;;;;;1.53;0.90;;;22.80;29.50;;;;;;5031873;28;20650;-60
2021/04/13 03:10:44;;;;;;;1.57;0.80;;;22.80;29.40;;;;;;5031709;28;20248;-60
2021/04/13 03:13:10;;;;;;;0.93;0.80;;;22.80;29.40;;;;;;5031870;28;20212;-60
2021/04/13 03:15:36;;;;;;;1.23;1.10;;;22.80;29.40;;;;;;5031011;28;20284;-60
2021/04/13 03:18:02;;;;;;;1.00;0.90;;;22.80;29.30;;;;;;5031897;28;20598;-60
2021/04/13 03:20:28;;;;;;;1.00;0.90;;;22.80;29.30;;;;;;5030906;28;20203;-61
2021/04/13 03:22:54;;;;;;;1.63;1.03;;;22.80;29.30;;;;;;5032717;28;20226;-61
2021/04/13 03:25:20;;;;;;;1.57;1.20;;;22.80;29.20;;;;;;5031453;28;20222;-61
2021/04/13 03:27:47;;;;;;;0.80;0.80;;;22.80;29.20;;;;;;5032729;28;20720;-61
2021/04/13 03:30:13;;;;;;;1.07;0.97;;;22.80;29.20;;;;;;5031579;28;20206;-61
2021/04/13 03:32:39;;;;;;;0.70;0.70;;;22.80;29.20;;;;;;5032641;28;20271;-61
2021/04/13 03:35:05;;;;;;;0.97;0.97;;;22.80;29.20;;;;;;5030404;28;20236;-61
2021/04/13 03:37:31;;;;;;;0.70;0.70;;;22.80;29.20;;;;;;5032881;28;20690;-61
2021/04/13 03:39:57;;;;;;;0.90;0.80;;;22.80;29.20;;;;;;5030919;28;20213;-61
2021/04/13 03:42:23;;;;;;;1.00;1.00;;;22.80;29.30;;;;;;5032695;28;20332;-61
2021/04/13 03:44:49;;;;;;;1.30;0.93;;;22.80;29.20;;;;;;5029938;28;20285;-61
2021/04/13 03:47:15;;;;;;;1.83;1.10;;;22.70;29.40;;;;;;5032470;28;20654;-61
2021/04/13 03:49:41;;;;;;;0.80;0.80;;;22.80;29.70;;;;;;5030967;28;20209;-61
2021/04/13 03:52:07;;;;;;;1.40;1.00;;;22.80;29.80;;;;;;5031783;28;20197;-61
2021/04/13 03:54:33;;;;;;;1.57;0.80;;;22.80;29.90;;;;;;5031365;28;20198;-61
2021/04/13 03:57:00;;;;;;;2.20;0.90;;;22.70;29.80;;;;;;5022414;28;20199;-60
2021/04/13 03:59:26;;;;;;;0.80;0.80;;;22.70;29.90;;;;;;5023211;28;20649;-60
2021/04/13 04:01:52;;;;;;;0.93;0.90;;;22.70;29.90;;;;;;5031262;28;20264;-60
2021/04/13 04:04:18;;;;;;;1.20;1.10;;;22.70;30.00;;;;;;5031466;28;20205;-60
2021/04/13 04:06:46;;;;;;;2.30;1.20;;;22.70;30.00;;;;;;5030908;28;20218;-60
2021/04/13 04:09:12;;;;;;;2.43;1.00;;;22.70;30.00;;;;;;5032035;28;20209;-60
2021/04/13 04:11:38;;;;;;;1.27;0.80;;;22.70;30.00;;;;;;5029770;28;20209;-60
2021/04/13 04:14:04;;;;;;;1.57;0.90;;;22.70;30.00;;;;;;5030399;28;20210;-60
2021/04/13 04:16:30;;;;;;;1.20;0.90;;;22.70;30.00;;;;;;5030446;28;20237;-59
2021/04/13 04:18:56;;;;;;;1.73;1.00;;;22.70;30.00;;;;;;5030241;28;20248;-61
2021/04/13 04:21:22;;;;;;;1.50;0.90;;;22.70;29.90;;;;;;5029814;28;20224;-61
2021/04/13 04:23:48;;;;;;;1.80;1.00;;;22.70;29.80;;;;;;5030478;28;20204;-61
2021/04/13 04:26:14;;;;;;;0.97;0.97;;;22.70;29.90;;;;;;5031155;28;20222;-61
2021/04/13 04:28:40;;;;;;;0.90;0.90;;;22.70;29.90;;;;;;5030377;28;20211;-60
2021/04/13 04:31:06;;;;;;;2.33;0.90;;;22.70;29.90;;;;;;5030640;28;20753;-61
2021/04/13 04:33:32;;;;;;;1.27;0.80;;;22.70;29.80;;;;;;5029491;28;20206;-61
2021/04/13 04:35:58;;;;;;;0.70;0.70;;;22.70;29.80;;;;;;5029913;28;20226;-61
2021/04/13 04:38:24;;;;;;;0.80;0.80;;;22.70;29.90;;;;;;5030649;28;20201;-61
2021/04/13 04:40:50;;;;;;;0.87;0.87;;;22.70;29.80;;;;;;5030482;28;20670;-61
2021/04/13 04:43:18;;;;;;;0.97;0.87;;;22.70;29.80;;;;;;5030766;28;20271;-61
2021/04/13 04:45:44;;;;;;;1.27;1.00;;;22.70;29.80;;;;;;5029949;28;20650;-61
2021/04/13 04:48:09;;;;;;;1.00;0.90;;;22.70;29.90;;;;;;5030562;28;20693;-60
2021/04/13 04:50:35;;;;;;;0.93;0.83;;;22.70;29.80;;;;;;5030599;28;20190;-61
2021/04/13 04:53:01;;;;;;;1.00;1.00;;;22.70;29.90;;;;;;5030393;28;20591;-60
2021/04/13 04:55:27;;;;;;;0.97;0.80;;;22.80;30.00;;;;;;5030035;28;20225;-61
2021/04/13 04:57:53;;;;;;;1.10;1.00;;;22.70;30.00;;;;;;5030930;28;20217;-60
2021/04/13 05:00:19;;;;;;;0.70;0.70;;;22.70;30.00;;;;;;5029184;28;20275;-61
2021/04/13 05:02:45;;;;;;;0.80;0.80;;;22.70;30.00;;;;;;5031489;28;20242;-61
2021/04/13 05:05:11;;;;;;;2.10;0.80;;;22.70;30.00;;;;;;5029929;28;20689;-61
2021/04/13 05:07:37;;;;;;;0.87;0.87;;;22.70;30.10;;;;;;5030614;28;20260;-61
2021/04/13 05:10:03;;;;;;;1.37;0.87;;;22.70;30.00;;;;;;5029418;28;20592;-60
2021/04/13 05:12:29;;;;;;;1.20;0.83;;;22.70;30.10;;;;;;5030227;28;20298;-60
2021/04/13 05:14:55;;;;;;;1.10;0.80;;;22.70;30.10;;;;;;5031097;28;20706;-60
2021/04/13 05:17:21;;;;;;;1.70;0.83;;;22.70;30.10;;;;;;5028355;28;20203;-61
2021/04/13 05:19:47;;;;;;;0.80;0.80;;;22.70;30.10;;;;;;5029981;28;20198;-61
2021/04/13 05:22:13;;;;;;;2.43;1.00;;;22.70;30.10;;;;;;5026816;28;20234;-61
2021/04/13 05:24:39;;;;;;;1.00;1.00;;;22.70;30.00;;;;;;5030075;28;20236;-61
2021/04/13 05:27:05;;;;;;;0.80;0.80;;;22.70;30.10;;;;;;5029457;28;20216;-61
2021/04/13 05:29:31;;;;;;;1.07;0.97;;;22.70;30.20;;;;;;5030674;28;20206;-60
2021/04/13 05:31:57;;;;;;;1.63;1.00;;;22.70;30.80;;;;;;5028263;28;20201;-60
2021/04/13 05:34:23;;;;;;;1.43;1.00;;;22.70;30.00;;;;;;5020793;28;20754;-61
2021/04/13 05:36:49;;;;;;;1.13;0.80;;;22.70;30.00;;;;;;5036251;28;20209;-61
2021/04/13 05:39:15;;;;;;;0.80;0.80;;;22.70;30.00;;;;;;5037398;28;20202;-61
2021/04/13 05:41:41;;;;;;;1.53;0.90;;;22.70;30.00;;;;;;5035266;28;20233;-61
2021/04/13 05:44:07;;;;;;;1.20;1.10;;;22.70;30.10;;;;;;5036971;28;20194;-61
2021/04/13 05:46:33;;;;;;;0.80;0.80;;;22.70;30.00;;;;;;5036234;28;20226;-61
2021/04/13 05:48:59;;;;;;;0.80;0.80;;;22.70;30.00;;;;;;5037284;28;20224;-61
2021/04/13 05:51:25;;;;;;;0.83;0.80;;;22.70;30.00;;;;;;5035398;28;20201;-61
2021/04/13 05:53:51;;;;;;;1.43;0.90;;;22.70;30.00;;;;;;5036934;28;20610;-60
2021/04/13 05:56:17;;;;;;;0.80;0.80;;;22.70;30.00;;;;;;5035751;28;20237;-60
2021/04/13 05:58:43;;;;;;;0.80;0.80;;;22.70;30.00;;;;;;5022792;28;20206;-60
2021/04/13 06:01:09;;;;;;;1.03;1.03;;;22.70;30.00;;;;;;5026934;28;20222;-60
2021/04/13 06:03:35;;;;;;;2.30;1.30;;;22.70;29.90;;;;;;5037401;28;20316;-60
2021/04/13 06:06:01;;;;;;;0.70;0.70;;;22.70;29.90;;;;;;5035390;28;20701;-59
2021/04/13 06:08:27;;;;;;;1.23;0.93;;;22.70;29.90;;;;;;5037158;28;20205;-60
2021/04/13 06:10:53;;;;;;;0.80;0.80;;;22.70;30.00;;;;;;5033491;28;20265;-60
2021/04/13 06:13:19;;;;;;;0.80;0.80;;;22.70;29.80;;;;;;5036914;28;20227;-60
2021/04/13 06:15:45;;;;;;;1.40;0.87;;;22.70;29.70;;;;;;5035649;28;20226;-60
2021/04/13 06:18:11;;;;;;;0.83;0.80;;;22.70;29.60;;;;;;5036811;28;20206;-60
2021/04/13 06:20:37;;;;;;;1.20;1.10;;;22.70;29.70;;;;;;5033838;28;20287;-61
2021/04/13 06:23:03;;;;;;;1.57;1.10;;;22.70;29.60;;;;;;5035088;28;20243;-62
2021/04/13 06:25:29;;;;;;;1.40;1.10;;;22.70;30.30;;;;;;5036131;28;20585;-61
2021/04/13 06:27:55;;;;;;;0.83;0.80;;;22.70;29.70;;;;;;5036726;28;20250;-61
2021/04/13 06:30:21;;;;;;;0.97;0.97;;;22.70;29.80;;;;;;5036446;28;20205;-61
2021/04/13 06:32:47;;;;;;;1.13;0.90;;;22.70;29.70;;;;;;5035876;28;20205;-62
2021/04/13 06:35:13;;;;;;;1.87;1.00;;;22.70;29.70;;;;;;5036742;28;20225;-62
2021/04/13 06:37:39;;;;;;;0.80;0.80;;;22.70;29.70;;;;;;5035883;28;20256;-61
2021/04/13 06:40:05;;;;;;;1.50;1.00;;;22.70;29.80;;;;;;5035894;28;20231;-59
2021/04/13 06:42:31;;;;;;;1.00;0.90;;;22.70;29.80;;;;;;5035030;28;20232;-60
2021/04/13 06:44:57;;;;;;;1.13;1.03;;;22.70;29.70;;;;;;5036651;28;20233;-60
2021/04/13 06:47:23;;;;;;;0.97;0.90;;;22.70;29.70;;;;;;5031459;28;20209;-60
2021/04/13 06:49:49;;;;;;;0.83;0.83;;;22.70;29.60;;;;;;5032181;28;20691;-60
2021/04/13 06:52:15;;;;;;;1.00;0.90;;;22.80;29.60;;;;;;5031924;28;20202;-60
2021/04/13 06:54:41;;;;;;;0.88;0.88;;;22.70;29.50;;;;;;5032511;28;20236;-62
2021/04/13 06:57:07;;;;;;;2.70;0.90;;;22.70;29.50;;;;;;5033158;28;20233;-61
2021/04/13 06:59:33;;;;;;;1.45;1.00;;;22.70;29.50;;;;;;5033379;28;20206;-61
2021/04/13 07:01:59;;;;;;;2.07;1.40;;;22.70;29.40;;;;;;5030577;28;20218;-61
2021/04/13 07:04:25;;;;;;;1.73;0.93;;;22.70;29.50;;;;;;5033352;28;20269;-61
2021/04/13 07:06:51;;;;;;;1.17;1.10;;;22.70;29.40;;;;;;5026592;28;20203;-61
2021/04/13 07:09:17;;;;;;;6.70;1.10;;;22.70;29.50;;;;;;5032937;28;20198;-61
2021/04/13 07:11:43;;;;;;;1.73;1.10;;;22.70;30.20;;;;;;5027210;28;20676;-62
2021/04/13 07:14:09;;;;;;;3.23;1.10;;;22.80;30.10;;;;;;5031052;28;20242;-60
2021/04/13 07:16:35;;;;;;;5.77;1.17;;;22.80;30.40;;;;;;5022660;28;20203;-64
2021/04/13 07:19:02;;;;;;;2.20;1.00;;;22.80;30.70;;;;;;5031514;28;20221;-65
2021/04/13 07:21:28;;;;;;;2.83;1.00;;;22.80;30.50;;;;;;5028715;28;20225;-62
2021/04/13 07:23:54;;;;;;;2.30;1.10;;;22.80;31.30;;;;;;5029990;28;20233;-63
2021/04/13 07:26:20;;;;;;;4.40;1.57;;;22.80;30.90;;;;;;5031640;28;20237;-63
2021/04/13 07:28:46;;;;;;;8.90;8.00;;;22.80;31.00;;;;;;5032089;28;20206;-62
2021/04/13 07:31:12;;;;;;;11.73;10.70;;;22.00;23.40;;;;;;5025542;28;20202;-63
2021/04/13 07:33:38;;;;;;;12.97;11.77;;;17.60;24.30;;;;;;5022142;28;20261;-64
2021/04/13 07:36:04;;;;;;;9.70;8.80;;;15.10;26.20;;;;;;5025915;28;20295;-62
2021/04/13 07:38:30;;;;;;;6.87;6.07;;;16.90;27.70;;;;;;5031630;28;20219;-72
2021/04/13 07:40:56;;;;;;;5.10;4.70;;;18.80;27.30;;;;;;5028346;28;20208;-63
2021/04/13 07:43:23;;;;;;;3.50;3.20;;;20.10;26.60;;;;;;5025919;28;20212;-64
2021/04/13 07:45:49;;;;;;;4.50;3.07;;;20.90;26.60;;;;;;5014080;28;20260;-70
2021/04/13 07:48:15;;;;;;;3.73;2.27;;;21.40;26.80;;;;;;5030333;28;20218;-61
2021/04/13 07:50:41;;;;;;;2.03;1.93;;;21.80;26.90;;;;;;5030732;28;20572;-62
2021/04/13 07:53:07;;;;;;;2.03;1.90;;;22.10;26.90;;;;;;5031720;28;20217;-62
2021/04/13 07:55:33;;;;;;;1.70;1.60;;;22.20;27.00;;;;;;5031006;28;20250;-62
2021/04/13 07:57:59;;;;;;;1.63;1.53;;;22.30;27.10;;;;;;5029103;28;20200;-61
2021/04/13 08:00:25;;;;;;;2.03;1.70;;;22.30;27.20;;;;;;5026861;28;20203;-61
2021/04/13 08:02:51;;;;;;;1.73;1.63;;;22.40;27.30;;;;;;5029679;28;20676;-61
2021/04/13 08:05:17;;;;;;;1.40;1.30;;;22.50;27.30;;;;;;5027788;28;20225;-61
2021/04/13 08:07:43;;;;;;;1.70;1.60;;;22.50;27.40;;;;;;5028610;28;20198;-61
2021/04/13 08:10:09;;;;;;;2.23;1.50;;;22.60;27.50;;;;;;5026441;28;20257;-61
2021/04/13 08:12:35;;;;;;;1.40;1.30;;;22.60;27.40;;;;;;5025195;28;20219;-62
2021/04/13 08:15:01;;;;;;;1.53;1.40;;;22.70;27.80;;;;;;5026452;28;20233;-65
2021/04/13 08:17:27;;;;;;;2.47;1.30;;;22.80;27.90;;;;;;5021034;28;20293;-61
2021/04/13 08:19:53;;;;;;;1.97;1.20;;;22.90;28.00;;;;;;5027390;28;20213;-66
2021/04/13 08:22:20;;;;;;;2.20;1.30;;;22.90;28.00;;;;;;5029338;28;20751;-64
2021/04/13 08:24:45;;;;;;;1.53;1.30;;;22.90;28.00;;;;;;5029524;28;20709;-65
2021/04/13 08:27:11;;;;;;;1.43;1.33;;;22.90;28.20;;;;;;5027885;28;20267;-64
2021/04/13 08:29:38;;;;;;;1.20;1.10;;;22.90;28.30;;;;;;5027676;28;20562;-64
2021/04/13 08:34:48;;;;;;;1.20;1.20;;;22.90;28.40;;;;;;5020463;28;20298;-57
2021/04/13 08:37:14;;;;;;;1.70;1.30;;;22.90;28.50;;;;;;5029680;28;20202;-60
2021/04/13 08:39:40;;;;;;;1.30;1.20;;;22.90;28.40;;;;;;5028523;28;20208;-63
2021/04/13 08:42:06;;;;;;;2.03;1.20;;;22.90;28.50;;;;;;5024295;28;21442;-62
2021/04/13 08:44:34;;;;;;;1.50;1.30;;;22.90;28.50;;;;;;5028859;28;20389;-68
2021/04/13 08:47:00;;;;;;;1.70;1.10;;;22.80;28.40;;;;;;5023866;28;20253;-68
2021/04/13 08:49:26;;;;;;;1.10;1.00;;;22.80;28.50;;;;;;5023522;28;20213;-68
2021/04/13 08:51:52;;;;;;;1.15;1.05;;;22.80;28.40;;;;;;5023728;28;20214;-68
2021/04/13 08:54:18;;;;;;;1.50;1.17;;;22.80;28.50;;;;;;5026465;28;20222;-67
2021/04/13 08:56:44;;;;;;;1.20;1.10;;;22.80;28.40;;;;;;5022700;28;20232;-67
2021/04/13 08:59:10;;;;;;;1.20;1.10;;;22.70;28.30;;;;;;5030647;28;20251;-67
2021/04/13 09:01:37;;;;;;;1.37;1.20;;;22.70;28.30;;;;;;5027697;28;20226;-67
2021/04/13 09:04:04;;;;;;;1.53;1.23;;;22.70;28.30;;;;;;5031042;28;20276;-70
2021/04/13 09:06:29;;;;;;;2.10;1.20;;;22.70;28.20;;;;;;5027357;28;20207;-60
2021/04/13 09:08:55;;;;;;;1.30;1.20;;;22.70;28.70;;;;;;5023517;28;20205;-62
2021/04/13 09:11:22;;;;;;;2.07;1.30;;;22.80;28.50;;;;;;5024637;28;20210;-69
2021/04/13 09:13:48;;;;;;;1.87;1.20;;;22.80;28.60;;;;;;5025182;28;20564;-70
2021/04/13 09:16:14;;;;;;;1.40;1.30;;;22.80;28.40;;;;;;5030203;28;20209;-68
2021/04/13 09:18:40;;;;;;;1.30;1.20;;;22.80;28.40;;;;;;5030779;28;20210;-67
2021/04/13 09:21:05;;;;;;;1.17;1.10;;;22.80;28.40;;;;;;5029650;28;20248;-67
2021/04/13 09:23:31;;;;;;;2.17;1.20;;;22.80;28.30;;;;;;5030884;28;20222;-67
2021/04/13 09:25:57;;;;;;;1.07;1.07;;;22.80;28.30;;;;;;5030308;28;20198;-68
2021/04/13 09:28:23;;;;;;;1.47;1.20;;;22.80;28.30;;;;;;5030680;28;20202;-70
2021/04/13 09:30:49;;;;;;;1.50;1.23;;;22.80;28.30;;;;;;5029745;28;20198;-67
2021/04/13 09:33:15;;;;;;;1.20;1.17;;;22.80;28.30;;;;;;5030310;28;20600;-67
2021/04/13 09:35:41;;;;;;;1.40;1.30;;;22.80;28.30;;;;;;5031106;28;20209;-67
2021/04/13 09:38:07;;;;;;;1.37;1.20;;;22.80;28.30;;;;;;5030941;28;20670;-68
2021/04/13 09:40:33;;;;;;;0.90;0.90;;;22.80;28.40;;;;;;5030232;28;20201;-67
2021/04/13 09:42:59;;;;;;;2.67;1.37;;;22.80;28.50;;;;;;5030590;28;20241;-68
2021/04/13 09:45:25;;;;;;;1.40;1.30;;;22.80;28.30;;;;;;5030239;28;20264;-67
2021/04/13 09:47:51;;;;;;;1.07;1.00;;;22.80;28.30;;;;;;5024327;28;20927;-67
2021/04/13 09:50:17;;;;;;;1.63;1.40;;;22.80;28.20;;;;;;5029583;28;20206;-67
2021/04/13 09:52:43;;;;;;;2.40;1.37;;;22.80;28.20;;;;;;5030723;28;20209;-68
2021/04/13 09:55:09;;;;;;;1.30;1.20;;;22.80;28.30;;;;;;5030558;28;20626;-67
2021/04/13 09:57:35;;;;;;;2.13;1.17;;;22.90;28.30;;;;;;5030728;28;20769;-68
2021/04/13 10:00:01;;;;;;;1.20;1.00;;;22.90;28.30;;;;;;5028358;28;20218;-67
2021/04/13 10:02:27;;;;;;;1.90;1.20;;;22.90;28.30;;;;;;5020780;28;20254;-70
2021/04/13 10:04:53;;;;;;;3.23;1.30;;;22.90;28.50;;;;;;5022453;28;20230;-61
2021/04/13 10:07:20;;;;;;;3.00;1.40;;;22.90;28.60;;;;;;5025133;28;20205;-63
2021/04/13 10:09:46;;;;;;;3.65;1.27;;;22.90;28.60;;;;;;5028305;28;20235;-65
2021/04/13 10:12:12;;;;;;;2.70;1.27;;;22.90;28.60;;;;;;5028733;28;20580;-67
2021/04/13 10:14:37;;;;;;;2.50;1.30;;;22.90;29.20;;;;;;5028107;28;20222;-68
2021/04/13 10:17:03;;;;;;;1.53;1.20;;;22.90;29.00;;;;;;5026680;28;20221;-63
2021/04/13 10:19:29;;;;;;;3.07;1.10;;;22.90;28.90;;;;;;5025621;28;20214;-63
2021/04/13 10:21:55;;;;;;;1.00;1.00;;;22.90;29.20;;;;;;5024766;28;20229;-62
2021/04/13 10:24:21;;;;;;;3.03;1.40;;;22.90;28.90;;;;;;5024723;28;20226;-61
2021/04/13 10:26:47;;;;;;;1.07;1.00;;;22.90;28.80;;;;;;5022726;28;20203;-71
2021/04/13 10:29:13;;;;;;;1.33;1.23;;;22.90;28.80;;;;;;5021034;28;20712;-69
2021/04/13 10:31:39;;;;;;;1.77;1.20;;;22.90;28.80;;;;;;5022043;28;20217;-70
2021/04/13 10:34:05;;;;;;;1.77;1.10;;;22.90;29.20;;;;;;5022416;28;20228;-69
2021/04/13 10:36:31;;;;;;;1.33;1.23;;;22.90;29.40;;;;;;5020907;28;20294;-69
2021/04/13 10:38:57;;;;;;;1.58;1.08;;;22.90;29.20;;;;;;5030307;28;20206;-64
2021/04/13 10:41:23;;;;;;;1.87;1.10;;;22.90;29.20;;;;;;5018485;28;20663;-63
2021/04/13 10:43:50;;;;;;;0.80;0.80;;;22.90;29.20;;;;;;5021143;28;20229;-61
2021/04/13 10:46:16;;;;;;;1.17;1.02;;;22.90;29.00;;;;;;5021390;28;20198;-64
2021/04/13 10:48:43;;;;;;;1.13;1.02;;;22.90;29.60;;;;;;5021010;28;20213;-64
2021/04/13 10:51:08;;;;;;;1.63;1.17;;;22.90;29.50;;;;;;5022151;28;20198;-63
2021/04/13 10:53:34;;;;;;;1.40;1.30;;;22.90;29.50;;;;;;5021310;28;20226;-64
2021/04/13 10:56:00;;;;;;;1.47;1.37;;;22.90;29.40;;;;;;5022601;28;20213;-63
2021/04/13 10:58:26;;;;;;;1.57;1.10;;;22.90;29.40;;;;;;5020610;28;20198;-64
2021/04/13 11:00:52;;;;;;;1.87;1.30;;;22.90;29.20;;;;;;5024898;28;20206;-64
2021/04/13 11:03:18;;;;;;;2.33;2.00;;;22.90;29.00;;;;;;5023572;28;20589;-65
2021/04/13 11:05:44;;;;;;;13.37;9.97;;;22.90;29.30;;;;;;5032170;28;20292;-66
2021/04/13 11:08:10;;;;;;;21.90;15.27;;;22.90;29.40;;;;;;5026984;28;20299;-65
2021/04/13 11:10:36;;;;;;;22.83;15.73;;;23.00;29.90;;;;;;5028977;28;20214;-65
2021/04/13 11:13:02;;;;;;;21.23;16.67;;;23.00;30.00;;;;;;5025092;28;20741;-65
2021/04/13 11:15:28;;;;;;;24.23;17.05;;;23.00;30.20;;;;;;5024483;28;20206;-65
2021/04/13 11:17:54;;;;;;;22.33;16.40;;;23.00;30.70;;;;;;5020271;28;20202;-66
2021/04/13 11:20:20;;;;;;;37.40;22.43;;;23.10;30.50;;;;;;5021442;28;20202;-65
2021/04/13 11:22:47;;;;;;;42.78;26.48;;;23.10;30.70;;;;;;5022537;28;20245;-65
2021/04/13 11:25:13;;;;;;;53.47;30.80;;;23.10;30.80;;;;;;5020089;28;20233;-65
2021/04/13 11:27:39;;;;;;;57.42;31.52;;;23.10;30.90;;;;;;5022739;28;20211;-65
2021/04/13 11:30:08;;;;;;;50.90;29.88;;;23.10;31.00;;;;;;5021439;28;20214;-64
2021/04/13 11:32:34;;;;;;;70.15;35.13;;;23.10;31.20;;;;;;5021308;28;20586;-65
2021/04/13 11:35:00;;;;;;;60.37;34.93;;;23.10;31.50;;;;;;5019715;28;20211;-66
2021/04/13 11:37:26;;;;;;;58.92;34.15;;;23.10;31.90;;;;;;5023345;28;20206;-64
2021/04/13 11:39:52;;;;;;;58.43;34.93;;;23.10;32.10;;;;;;5021121;28;20202;-64
2021/04/13 11:42:18;;;;;;;62.27;35.33;;;23.10;32.40;;;;;;5025250;28;20691;-64
2021/04/13 11:44:44;;;;;;;58.38;36.30;;;23.10;32.40;;;;;;5028602;28;20219;-65
2021/04/13 11:47:10;;;;;;;56.97;34.87;;;23.10;32.90;;;;;;5027508;28;20218;-64
2021/04/13 11:49:36;;;;;;;57.70;34.08;;;23.10;33.10;;;;;;5028365;28;20211;-64
2021/04/13 11:52:02;;;;;;;60.38;34.17;;;23.10;33.30;;;;;;5024013;28;20261;-64
2021/04/13 11:54:28;;;;;;;54.40;33.10;;;23.10;33.30;;;;;;5020944;28;20288;-64
2021/04/13 11:56:54;;;;;;;55.60;31.98;;;23.10;33.30;;;;;;5021714;28;20202;-64
2021/04/13 11:59:20;;;;;;;53.43;31.63;;;23.10;33.40;;;;;;5022289;28;20221;-64
2021/04/13 12:01:46;;;;;;;53.97;31.70;;;23.10;34.00;;;;;;5021283;28;20305;-64
2021/04/13 12:04:12;;;;;;;50.27;30.57;;;23.10;33.40;;;;;;5021126;28;20620;-64
2021/04/13 12:06:38;;;;;;;48.67;31.33;;;23.10;33.40;;;;;;5020951;28;20194;-63
2021/04/13 12:09:04;;;;;;;53.47;31.65;;;23.10;33.40;;;;;;5020765;28;20647;-64
2021/04/13 12:11:30;;;;;;;47.97;30.40;;;23.10;33.50;;;;;;5017635;28;20211;-64
2021/04/13 12:13:56;;;;;;;44.88;27.15;;;23.10;33.40;;;;;;5021383;28;20648;-63
2021/04/13 12:16:22;;;;;;;49.90;27.77;;;23.10;33.40;;;;;;5021820;28;20202;-63
2021/04/13 12:18:48;;;;;;;43.43;27.97;;;23.00;33.20;;;;;;5022031;28;20554;-63
2021/04/13 12:21:14;;;;;;;30.38;16.25;;;23.10;33.30;;;;;;5018992;28;20198;-64
2021/04/13 12:23:40;;;;;;;23.40;12.50;;;22.90;29.20;;;;;;5023090;28;20217;-61
2021/04/13 12:26:06;;;;;;;15.90;8.63;;;22.80;26.90;;;;;;5030338;28;20217;-64
2021/04/13 12:28:32;;;;;;;16.07;8.73;;;22.10;23.50;;;;;;5029056;28;20674;-65
2021/04/13 12:30:58;;;;;;;14.50;7.33;;;22.00;24.40;;;;;;5029548;28;20209;-65
2021/04/13 12:33:24;;;;;;;14.87;8.20;;;22.20;24.80;;;;;;5028976;28;20230;-65
2021/04/13 12:35:50;;;;;;;15.13;9.07;;;22.40;25.70;;;;;;5030627;28;20206;-65
2021/04/13 12:38:16;;;;;;;15.70;7.93;;;22.50;26.00;;;;;;5023821;28;20650;-64
2021/04/13 12:40:42;;;;;;;11.03;7.70;;;22.60;26.10;;;;;;5021336;28;20205;-64